createdAt,value
2019-06-27T00:00:23.111Z,1022.08
2019-06-27T00:01:23.108Z,1022.13
2019-06-27T00:02:23.111Z,1022.09
2019-06-27T00:03:23.111Z,1022.08
2019-06-27T00:04:23.106Z,1022.10
2019-06-27T00:05:23.108Z,1022.11
2019-06-27T00:06:23.103Z,1022.13
2019-06-27T00:07:23.100Z,1022.15
2019-06-27T00:08:23.099Z,1022.20
2019-06-27T00:09:23.165Z,1022.15
2019-06-27T00:10:23.102Z,1022.13
2019-06-27T00:11:23.100Z,1022.10
2019-06-27T00:12:23.103Z,1022.07
2019-06-27T00:13:23.101Z,1022.07
2019-06-27T00:14:23.097Z,1022.09
2019-06-27T00:15:23.096Z,1022.09
2019-06-27T00:16:23.100Z,1022.10
2019-06-27T00:17:23.097Z,1022.12
2019-06-27T00:18:23.093Z,1022.12
2019-06-27T00:19:23.092Z,1022.09
2019-06-27T00:20:23.148Z,1022.11
2019-06-27T00:21:23.088Z,1022.08
2019-06-27T00:22:23.104Z,1022.11
2019-06-27T00:23:23.089Z,1022.10
2019-06-27T00:24:23.088Z,1022.10
2019-06-27T00:25:23.086Z,1022.12
2019-06-27T00:26:23.084Z,1022.07
2019-06-27T00:27:23.081Z,1022.12
2019-06-27T00:28:23.083Z,1022.12
2019-06-27T00:29:23.080Z,1022.15
2019-06-27T00:30:23.111Z,1022.19
2019-06-27T00:31:23.088Z,1022.19
2019-06-27T00:32:23.080Z,1022.18
2019-06-27T00:33:23.078Z,1022.13
2019-06-27T00:34:23.078Z,1022.10
2019-06-27T00:35:23.079Z,1022.14
2019-06-27T00:36:23.074Z,1022.12
2019-06-27T00:37:23.075Z,1022.11
2019-06-27T00:38:23.067Z,1022.10
2019-06-27T00:39:23.065Z,1022.12
2019-06-27T00:40:23.067Z,1022.07
2019-06-27T00:41:23.067Z,1022.09
2019-06-27T00:42:23.068Z,1022.10
2019-06-27T00:43:23.067Z,1022.15
2019-06-27T00:44:23.070Z,1022.10
2019-06-27T00:45:23.061Z,1022.12
2019-06-27T00:46:23.056Z,1022.13
2019-06-27T00:47:23.055Z,1022.13
2019-06-27T00:48:23.059Z,1022.12
2019-06-27T00:49:23.055Z,1022.11
2019-06-27T00:50:23.050Z,1022.15
2019-06-27T00:51:23.050Z,1022.18
2019-06-27T00:52:23.050Z,1022.18
2019-06-27T00:53:23.048Z,1022.16
2019-06-27T00:54:23.051Z,1022.12
2019-06-27T00:55:23.059Z,1022.14
2019-06-27T00:56:23.048Z,1022.12
2019-06-27T00:57:23.051Z,1022.16
2019-06-27T00:58:23.041Z,1022.15
2019-06-27T00:59:23.039Z,1022.15
2019-06-27T01:00:23.036Z,1022.16
2019-06-27T01:01:23.032Z,1022.18
2019-06-27T01:02:23.035Z,1022.15
2019-06-27T01:03:23.033Z,1022.13
2019-06-27T01:04:23.027Z,1022.16
2019-06-27T01:05:23.024Z,1022.19
2019-06-27T01:06:23.028Z,1022.14
2019-06-27T01:07:23.033Z,1022.15
2019-06-27T01:08:23.025Z,1022.20
2019-06-27T01:09:23.025Z,1022.19
2019-06-27T01:10:23.022Z,1022.20
2019-06-27T01:11:23.018Z,1022.22
2019-06-27T01:12:23.019Z,1022.26
2019-06-27T01:13:23.016Z,1022.20
2019-06-27T01:14:23.016Z,1022.30
2019-06-27T01:15:23.015Z,1022.18
2019-06-27T01:16:23.012Z,1022.21
2019-06-27T01:17:23.011Z,1022.16
2019-06-27T01:18:23.001Z,1022.19
2019-06-27T01:19:23.002Z,1022.18
2019-06-27T01:20:23.004Z,1022.21
2019-06-27T01:21:23.001Z,1022.18
2019-06-27T01:22:22.994Z,1022.20
2019-06-27T01:23:22.993Z,1022.24
2019-06-27T01:24:22.994Z,1022.20
2019-06-27T01:25:22.994Z,1022.18
2019-06-27T01:26:22.994Z,1022.17
2019-06-27T01:27:30.062Z,1022.18
2019-06-27T01:28:22.990Z,1022.17
2019-06-27T01:29:23.040Z,1022.17
2019-06-27T01:30:22.982Z,1022.18
2019-06-27T01:31:22.979Z,1022.12
2019-06-27T01:32:22.977Z,1022.14
2019-06-27T01:33:22.973Z,1022.13
2019-06-27T01:34:22.974Z,1022.14
2019-06-27T01:35:22.974Z,1022.17
2019-06-27T01:36:22.966Z,1022.19
2019-06-27T01:37:22.963Z,1022.15
2019-06-27T01:38:22.965Z,1022.17
2019-06-27T01:39:22.963Z,1022.14
2019-06-27T01:40:22.964Z,1022.11
2019-06-27T01:41:22.962Z,1022.11
2019-06-27T01:42:22.957Z,1022.12
2019-06-27T01:43:22.952Z,1022.13
2019-06-27T01:44:22.954Z,1022.14
2019-06-27T01:45:22.951Z,1022.14
2019-06-27T01:46:22.945Z,1022.18
2019-06-27T01:47:22.944Z,1022.13
2019-06-27T01:48:22.941Z,1022.16
2019-06-27T01:49:22.935Z,1022.17
2019-06-27T01:50:22.938Z,1022.14
2019-06-27T01:51:22.936Z,1022.15
2019-06-27T01:52:22.929Z,1022.13
2019-06-27T01:53:22.931Z,1022.16
2019-06-27T01:54:22.934Z,1022.16
2019-06-27T01:55:22.925Z,1022.17
2019-06-27T01:56:22.926Z,1022.12
2019-06-27T01:57:22.924Z,1022.12
2019-06-27T01:58:22.918Z,1022.15
2019-06-27T01:59:22.915Z,1022.14
2019-06-27T02:00:22.913Z,1022.22
2019-06-27T02:01:22.909Z,1022.19
2019-06-27T02:02:22.910Z,1022.20
2019-06-27T02:03:22.908Z,1022.23
2019-06-27T02:04:22.905Z,1022.24
2019-06-27T02:05:22.902Z,1022.25
2019-06-27T02:06:22.895Z,1022.27
2019-06-27T02:07:22.891Z,1022.23
2019-06-27T02:08:22.893Z,1022.18
2019-06-27T02:09:22.894Z,1022.24
2019-06-27T02:10:22.885Z,1022.25
2019-06-27T02:11:22.881Z,1022.21
2019-06-27T02:12:22.883Z,1022.27
2019-06-27T02:13:22.884Z,1022.25
2019-06-27T02:14:22.880Z,1022.27
2019-06-27T02:15:22.885Z,1022.28
2019-06-27T02:16:22.876Z,1022.26
2019-06-27T02:17:22.877Z,1022.25
2019-06-27T02:18:22.866Z,1022.32
2019-06-27T02:19:22.865Z,1022.24
2019-06-27T02:20:22.858Z,1022.27
2019-06-27T02:21:22.855Z,1022.29
2019-06-27T02:22:22.859Z,1022.30
2019-06-27T02:23:22.856Z,1022.34
2019-06-27T02:24:22.851Z,1022.33
2019-06-27T02:25:22.846Z,1022.31
2019-06-27T02:26:22.848Z,1022.32
2019-06-27T02:27:22.845Z,1022.30
2019-06-27T02:28:22.847Z,1022.30
2019-06-27T02:29:22.841Z,1022.30
2019-06-27T02:30:22.836Z,1022.35
2019-06-27T02:31:22.843Z,1022.33
2019-06-27T02:32:22.831Z,1022.33
2019-06-27T02:33:22.837Z,1022.35
2019-06-27T02:34:22.828Z,1022.36
2019-06-27T02:35:22.828Z,1022.39
2019-06-27T02:36:22.822Z,1022.33
2019-06-27T02:37:22.821Z,1022.35
2019-06-27T02:38:22.812Z,1022.36
2019-06-27T02:39:22.808Z,1022.39
2019-06-27T02:40:22.811Z,1022.39
2019-06-27T02:41:22.813Z,1022.36
2019-06-27T02:42:22.798Z,1022.39
2019-06-27T02:43:22.797Z,1022.40
2019-06-27T02:44:22.798Z,1022.35
2019-06-27T02:45:22.805Z,1022.40
2019-06-27T02:46:22.797Z,1022.48
2019-06-27T02:47:22.793Z,1022.45
2019-06-27T02:48:22.796Z,1022.46
2019-06-27T02:49:22.786Z,1022.43
2019-06-27T02:50:22.777Z,1022.47
2019-06-27T02:51:22.776Z,1022.47
2019-06-27T02:52:22.780Z,1022.46
2019-06-27T02:53:22.776Z,1022.51
2019-06-27T02:54:22.774Z,1022.45
2019-06-27T02:55:22.774Z,1022.49
2019-06-27T02:56:22.766Z,1022.46
2019-06-27T02:57:22.761Z,1022.46
2019-06-27T02:58:31.047Z,1022.48
2019-06-27T02:59:22.760Z,1022.46
2019-06-27T03:00:22.755Z,1022.45
2019-06-27T03:01:22.760Z,1022.45
2019-06-27T03:02:22.751Z,1022.49
2019-06-27T03:03:22.743Z,1022.43
2019-06-27T03:04:22.741Z,1022.46
2019-06-27T03:05:22.737Z,1022.43
2019-06-27T03:06:22.740Z,1022.46
2019-06-27T03:07:22.736Z,1022.48
2019-06-27T03:08:22.764Z,1022.51
2019-06-27T03:09:22.741Z,1022.49
2019-06-27T03:10:22.731Z,1022.45
2019-06-27T03:11:22.722Z,1022.51
2019-06-27T03:12:22.725Z,1022.52
2019-06-27T03:13:22.725Z,1022.51
2019-06-27T03:14:22.715Z,1022.50
2019-06-27T03:15:22.724Z,1022.47
2019-06-27T03:16:22.706Z,1022.50
2019-06-27T03:17:22.706Z,1022.51
2019-06-27T03:18:22.707Z,1022.53
2019-06-27T03:19:22.705Z,1022.50
2019-06-27T03:20:22.703Z,1022.51
2019-06-27T03:21:22.722Z,1022.50
2019-06-27T03:22:22.696Z,1022.53
2019-06-27T03:23:22.745Z,1022.55
2019-06-27T03:24:22.698Z,1022.62
2019-06-27T03:25:22.685Z,1022.62
2019-06-27T03:26:22.696Z,1022.64
2019-06-27T03:27:22.686Z,1022.64
2019-06-27T03:28:22.678Z,1022.66
2019-06-27T03:29:22.679Z,1022.65
2019-06-27T03:30:22.676Z,1022.65
2019-06-27T03:31:22.676Z,1022.63
2019-06-27T03:32:22.670Z,1022.58
2019-06-27T03:33:22.670Z,1022.63
2019-06-27T03:34:22.660Z,1022.62
2019-06-27T03:35:22.660Z,1022.63
2019-06-27T03:36:22.657Z,1022.60
2019-06-27T03:37:22.652Z,1022.54
2019-06-27T03:38:22.654Z,1022.59
2019-06-27T03:39:22.651Z,1022.57
2019-06-27T03:40:22.679Z,1022.62
2019-06-27T03:41:22.656Z,1022.63
2019-06-27T03:42:22.641Z,1022.62
2019-06-27T03:43:22.642Z,1022.61
2019-06-27T03:44:22.640Z,1022.64
2019-06-27T03:45:22.639Z,1022.66
2019-06-27T03:46:22.630Z,1022.62
2019-06-27T03:47:22.627Z,1022.66
2019-06-27T03:48:22.626Z,1022.62
2019-06-27T03:49:22.623Z,1022.62
2019-06-27T03:50:22.620Z,1022.63
2019-06-27T03:51:22.619Z,1022.62
2019-06-27T03:52:22.619Z,1022.65
2019-06-27T03:53:22.617Z,1022.64
2019-06-27T03:54:22.609Z,1022.62
2019-06-27T03:55:22.607Z,1022.66
2019-06-27T03:56:22.602Z,1022.66
2019-06-27T03:57:22.598Z,1022.68
2019-06-27T03:58:22.601Z,1022.72
2019-06-27T03:59:22.599Z,1022.71
2019-06-27T04:00:22.592Z,1022.69
2019-06-27T04:01:22.587Z,1022.70
2019-06-27T04:02:22.593Z,1022.75
2019-06-27T04:03:22.597Z,1022.76
2019-06-27T04:04:22.588Z,1022.83
2019-06-27T04:05:22.585Z,1022.83
2019-06-27T04:06:22.578Z,1022.88
2019-06-27T04:07:22.577Z,1022.85
2019-06-27T04:08:22.576Z,1022.88
2019-06-27T04:09:22.572Z,1022.89
2019-06-27T04:10:22.573Z,1022.88
2019-06-27T04:11:22.593Z,1022.85
2019-06-27T04:12:22.574Z,1022.81
2019-06-27T04:13:22.563Z,1022.77
2019-06-27T04:14:22.560Z,1022.77
2019-06-27T04:15:22.562Z,1022.82
2019-06-27T04:16:22.558Z,1022.81
2019-06-27T04:17:22.553Z,1022.84
2019-06-27T04:18:22.552Z,1022.83
2019-06-27T04:19:22.545Z,1022.84
2019-06-27T04:20:22.546Z,1022.84
2019-06-27T04:21:22.542Z,1022.84
2019-06-27T04:22:22.545Z,1022.84
2019-06-27T04:23:22.568Z,1022.84
2019-06-27T04:24:22.539Z,1022.87
2019-06-27T04:25:22.581Z,1022.83
2019-06-27T04:26:22.534Z,1022.83
2019-06-27T04:27:22.529Z,1022.84
2019-06-27T04:28:22.528Z,1022.82
2019-06-27T04:29:33.570Z,1022.80
2019-06-27T04:30:22.529Z,1022.78
2019-06-27T04:31:22.520Z,1022.81
2019-06-27T04:32:22.534Z,1022.85
2019-06-27T04:33:22.536Z,1022.82
2019-06-27T04:34:22.513Z,1022.78
2019-06-27T04:35:22.511Z,1022.76
2019-06-27T04:36:22.512Z,1022.80
2019-06-27T04:37:22.529Z,1022.85
2019-06-27T04:38:22.502Z,1022.87
2019-06-27T04:39:22.504Z,1022.90
2019-06-27T04:40:22.497Z,1022.95
2019-06-27T04:41:22.495Z,1022.91
2019-06-27T04:42:22.498Z,1022.94
2019-06-27T04:43:22.517Z,1022.94
2019-06-27T04:44:22.494Z,1022.93
2019-06-27T04:45:22.491Z,1022.95
2019-06-27T04:46:22.486Z,1022.97
2019-06-27T04:47:22.481Z,1022.98
2019-06-27T04:48:22.483Z,1022.93
2019-06-27T04:49:22.482Z,1022.96
2019-06-27T04:50:22.489Z,1022.92
2019-06-27T04:51:22.473Z,1023.01
2019-06-27T04:52:22.477Z,1022.93
2019-06-27T04:53:22.470Z,1022.90
2019-06-27T04:54:22.475Z,1022.93
2019-06-27T04:55:22.471Z,1022.93
2019-06-27T04:56:22.472Z,1022.92
2019-06-27T04:57:22.464Z,1022.95
2019-06-27T04:58:22.457Z,1022.98
2019-06-27T04:59:22.454Z,1022.96
2019-06-27T05:00:22.459Z,1022.96
2019-06-27T05:01:22.453Z,1022.99
2019-06-27T05:02:22.455Z,1023.03
2019-06-27T05:03:22.453Z,1022.98
2019-06-27T05:04:22.448Z,1023.01
2019-06-27T05:05:22.446Z,1023.04
2019-06-27T05:06:22.448Z,1023.01
2019-06-27T05:07:22.446Z,1023.02
2019-06-27T05:08:22.442Z,1023.01
2019-06-27T05:09:22.441Z,1023.02
2019-06-27T05:10:22.437Z,1023.03
2019-06-27T05:11:22.433Z,1023.03
2019-06-27T05:12:22.435Z,1023.07
2019-06-27T05:13:22.431Z,1023.11
2019-06-27T05:14:22.433Z,1023.16
2019-06-27T05:15:22.432Z,1023.20
2019-06-27T05:16:22.432Z,1023.13
2019-06-27T05:17:22.429Z,1023.13
2019-06-27T05:18:22.423Z,1023.15
2019-06-27T05:19:22.429Z,1023.17
2019-06-27T05:20:22.438Z,1023.20
2019-06-27T05:21:22.422Z,1023.16
2019-06-27T05:22:22.416Z,1023.28
2019-06-27T05:23:22.422Z,1023.36
2019-06-27T05:24:22.414Z,1023.38
2019-06-27T05:25:22.409Z,1023.78
2019-06-27T05:26:22.414Z,1023.85
2019-06-27T05:27:22.411Z,1023.92
2019-06-27T05:28:22.416Z,1023.77
2019-06-27T05:29:22.410Z,1023.94
2019-06-27T05:30:22.404Z,1023.70
2019-06-27T05:31:22.406Z,1023.50
2019-06-27T05:32:22.408Z,1023.54
2019-06-27T05:33:22.414Z,1023.46
2019-06-27T05:34:22.411Z,1023.83
2019-06-27T05:35:22.411Z,1023.96
2019-06-27T05:36:22.412Z,1023.87
2019-06-27T05:37:22.408Z,1023.76
2019-06-27T05:38:22.413Z,1024.19
2019-06-27T05:39:22.414Z,1023.59
2019-06-27T05:40:22.421Z,1024.12
2019-06-27T05:41:22.414Z,1024.08
2019-06-27T05:42:22.410Z,1024.25
2019-06-27T05:43:22.411Z,1024.30
2019-06-27T05:44:22.414Z,1024.41
2019-06-27T05:45:22.413Z,1024.44
2019-06-27T05:46:22.422Z,1024.38
2019-06-27T05:47:22.422Z,1024.36
2019-06-27T05:48:22.432Z,1024.47
2019-06-27T05:49:22.429Z,1024.45
2019-06-27T05:50:22.428Z,1024.57
2019-06-27T05:51:22.445Z,1024.59
2019-06-27T05:52:22.466Z,1024.61
2019-06-27T05:53:22.440Z,1024.35
2019-06-27T05:54:22.441Z,1024.11
2019-06-27T05:55:22.445Z,1024.72
2019-06-27T05:56:22.444Z,1024.69
2019-06-27T05:57:22.448Z,1024.13
2019-06-27T05:58:22.456Z,1024.80
2019-06-27T05:59:22.462Z,1024.73
2019-06-27T06:00:28.992Z,1024.34
2019-06-27T06:01:22.477Z,1023.98
2019-06-27T06:02:22.468Z,1024.81
2019-06-27T06:03:22.475Z,1024.01
2019-06-27T06:04:24.089Z,1024.01
2019-06-27T06:05:22.488Z,1024.78
2019-06-27T06:06:22.512Z,1024.85
2019-06-27T06:07:22.500Z,1024.55
2019-06-27T06:08:22.501Z,1024.34
2019-06-27T06:09:22.506Z,1024.80
2019-06-27T06:10:22.522Z,1024.59
2019-06-27T06:11:22.561Z,1024.88
2019-06-27T06:12:22.538Z,1024.97
2019-06-27T06:13:22.529Z,1025.07
2019-06-27T06:14:22.532Z,1024.97
2019-06-27T06:15:22.540Z,1024.69
2019-06-27T06:16:22.542Z,1025.09
2019-06-27T06:17:22.546Z,1025.08
2019-06-27T06:18:22.560Z,1025.15
2019-06-27T06:19:22.564Z,1025.00
2019-06-27T06:20:22.573Z,1024.95
2019-06-27T06:21:22.582Z,1025.06
2019-06-27T06:22:22.580Z,1025.11
2019-06-27T06:23:22.601Z,1025.24
2019-06-27T06:24:22.598Z,1024.68
2019-06-27T06:25:22.605Z,1024.99
2019-06-27T06:26:22.613Z,1024.33
2019-06-27T06:27:22.616Z,1024.38
2019-06-27T06:28:22.620Z,1025.19
2019-06-27T06:29:22.626Z,1024.93
2019-06-27T06:30:22.639Z,1024.47
2019-06-27T06:31:22.647Z,1025.08
2019-06-27T06:32:22.681Z,1024.84
2019-06-27T06:33:22.657Z,1024.42
2019-06-27T06:34:22.662Z,1024.83
2019-06-27T06:35:22.669Z,1024.32
2019-06-27T06:36:22.678Z,1024.40
2019-06-27T06:37:22.683Z,1024.35
2019-06-27T06:38:22.695Z,1025.05
2019-06-27T06:39:22.701Z,1024.99
2019-06-27T06:40:22.701Z,1025.15
2019-06-27T06:41:22.710Z,1024.83
2019-06-27T06:42:22.716Z,1025.21
2019-06-27T06:43:22.750Z,1025.24
2019-06-27T06:44:22.730Z,1025.33
2019-06-27T06:45:22.732Z,1025.32
2019-06-27T06:46:22.735Z,1025.32
2019-06-27T06:47:22.746Z,1025.31
2019-06-27T06:48:22.748Z,1025.33
2019-06-27T06:49:22.753Z,1025.34
2019-06-27T06:50:23.632Z,1025.27
2019-06-27T06:51:22.770Z,1025.41
2019-06-27T06:52:22.782Z,1025.41
2019-06-27T06:53:22.787Z,1025.39
2019-06-27T06:54:22.798Z,1025.45
2019-06-27T06:55:22.808Z,1025.38
2019-06-27T06:56:22.810Z,1025.42
2019-06-27T06:57:22.817Z,1025.48
2019-06-27T06:58:22.820Z,1025.51
2019-06-27T06:59:22.829Z,1025.48
2019-06-27T07:00:22.835Z,1025.46
2019-06-27T07:01:22.848Z,1025.46
2019-06-27T07:02:22.852Z,1025.49
2019-06-27T07:03:22.864Z,1025.54
2019-06-27T07:04:22.873Z,1025.54
2019-06-27T07:05:22.974Z,1025.56
2019-06-27T07:06:22.885Z,1025.53
2019-06-27T07:07:22.895Z,1025.57
2019-06-27T07:08:22.899Z,1025.58
2019-06-27T07:09:22.912Z,1025.51
2019-06-27T07:10:22.924Z,1025.58
2019-06-27T07:11:22.934Z,1025.61
2019-06-27T07:12:22.941Z,1025.68
2019-06-27T07:13:22.950Z,1025.62
2019-06-27T07:14:22.963Z,1025.64
2019-06-27T07:15:22.975Z,1025.66
2019-06-27T07:16:22.994Z,1025.67
2019-06-27T07:17:22.998Z,1025.74
2019-06-27T07:18:23.004Z,1025.69
2019-06-27T07:19:23.017Z,1025.66
2019-06-27T07:20:23.026Z,1025.69
2019-06-27T07:21:23.037Z,1025.70
2019-06-27T07:22:23.051Z,1025.63
2019-06-27T07:23:23.064Z,1025.65
2019-06-27T07:24:23.085Z,1025.62
2019-06-27T07:25:23.084Z,1025.58
2019-06-27T07:26:23.092Z,1025.58
2019-06-27T07:27:23.103Z,1025.65
2019-06-27T07:28:23.119Z,1025.59
2019-06-27T07:29:23.129Z,1025.66
2019-06-27T07:30:23.141Z,1025.65
2019-06-27T07:31:23.150Z,1025.67
2019-06-27T07:32:23.165Z,1025.58
2019-06-27T07:33:23.175Z,1025.58
2019-06-27T07:34:23.196Z,1025.61
2019-06-27T07:35:23.204Z,1025.57
2019-06-27T07:36:23.221Z,1025.58
2019-06-27T07:37:23.232Z,1025.60
2019-06-27T07:38:23.234Z,1025.66
2019-06-27T07:39:23.252Z,1025.71
2019-06-27T07:40:23.256Z,1025.63
2019-06-27T07:41:23.267Z,1025.76
2019-06-27T07:42:23.302Z,1025.79
2019-06-27T07:43:23.317Z,1024.76
2019-06-27T07:44:23.302Z,1024.72
2019-06-27T07:45:23.315Z,1024.67
2019-06-27T07:46:25.511Z,1024.67
2019-06-27T07:47:23.343Z,1024.62
2019-06-27T07:48:23.358Z,1024.71
2019-06-27T07:49:23.381Z,1024.67
2019-06-27T07:50:23.378Z,1024.66
2019-06-27T07:51:23.389Z,1024.68
2019-06-27T07:52:23.399Z,1024.74
2019-06-27T07:53:23.413Z,1024.66
2019-06-27T07:54:23.496Z,1024.70
2019-06-27T07:55:23.442Z,1024.64
2019-06-27T07:56:23.447Z,1024.75
2019-06-27T07:57:23.458Z,1024.68
2019-06-27T07:58:23.467Z,1024.75
2019-06-27T07:59:23.485Z,1024.71
2019-06-27T08:00:23.495Z,1024.76
2019-06-27T08:01:34.367Z,1024.76
2019-06-27T08:02:23.516Z,1024.77
2019-06-27T08:03:23.533Z,1024.70
2019-06-27T08:04:23.545Z,1024.77
2019-06-27T08:05:23.556Z,1024.66
2019-06-27T08:06:23.569Z,1024.71
2019-06-27T08:07:23.588Z,1024.68
2019-06-27T08:08:23.597Z,1024.66
2019-06-27T08:09:23.607Z,1024.65
2019-06-27T08:10:23.616Z,1024.65
2019-06-27T08:11:23.641Z,1024.67
2019-06-27T08:12:23.644Z,1024.65
2019-06-27T08:13:23.655Z,1024.73
2019-06-27T08:14:23.680Z,1024.69
2019-06-27T08:15:23.686Z,1024.72
2019-06-27T08:16:23.695Z,1024.75
2019-06-27T08:17:23.710Z,1024.78
2019-06-27T08:18:23.723Z,1024.70
2019-06-27T08:19:23.739Z,1024.75
2019-06-27T08:20:23.750Z,1024.78
2019-06-27T08:21:23.762Z,1024.80
2019-06-27T08:22:23.774Z,1024.77
2019-06-27T08:23:37.181Z,1024.74
2019-06-27T08:24:23.828Z,1024.77
2019-06-27T08:25:23.813Z,1024.74
2019-06-27T08:26:23.832Z,1024.72
2019-06-27T08:27:23.848Z,1024.71
2019-06-27T08:28:23.863Z,1024.69
2019-06-27T08:29:23.875Z,1024.75
2019-06-27T08:30:23.887Z,1024.72
2019-06-27T08:31:23.901Z,1024.76
2019-06-27T08:32:23.922Z,1024.72
2019-06-27T08:33:23.928Z,1024.71
2019-06-27T08:34:23.939Z,1024.69
2019-06-27T08:35:23.955Z,1024.75
2019-06-27T08:36:23.973Z,1024.79
2019-06-27T08:37:23.979Z,1024.78
2019-06-27T08:38:23.998Z,1024.75
2019-06-27T08:39:24.015Z,1024.72
2019-06-27T08:40:24.026Z,1024.76
2019-06-27T08:41:24.038Z,1024.72
2019-06-27T08:42:24.068Z,1024.72
2019-06-27T08:43:24.072Z,1024.78
2019-06-27T08:44:24.081Z,1024.75
2019-06-27T08:45:24.094Z,1024.73
2019-06-27T08:46:24.113Z,1024.77
2019-06-27T08:47:24.129Z,1024.78
2019-06-27T08:48:24.139Z,1024.84
2019-06-27T08:49:24.168Z,1025.69
2019-06-27T08:50:24.177Z,1025.69
2019-06-27T08:51:24.190Z,1025.67
2019-06-27T08:52:24.200Z,1025.64
2019-06-27T08:53:24.272Z,1025.70
2019-06-27T08:54:24.226Z,1025.60
2019-06-27T08:55:24.241Z,1025.63
2019-06-27T08:56:24.257Z,1025.67
2019-06-27T08:57:24.272Z,1025.62
2019-06-27T08:58:24.292Z,1025.61
2019-06-27T08:59:24.306Z,1025.67
2019-06-27T09:00:24.327Z,1025.72
2019-06-27T09:01:24.341Z,1025.73
2019-06-27T09:02:24.355Z,1025.77
2019-06-27T09:03:24.369Z,1025.75
2019-06-27T09:04:24.393Z,1025.66
2019-06-27T09:05:24.407Z,1025.62
2019-06-27T09:06:24.417Z,1025.63
2019-06-27T09:07:24.444Z,1025.67
2019-06-27T09:08:24.451Z,1025.64
2019-06-27T09:09:24.476Z,1025.66
2019-06-27T09:10:24.486Z,1025.68
2019-06-27T09:11:24.506Z,1025.62
2019-06-27T09:12:24.523Z,1025.63
2019-06-27T09:13:24.548Z,1025.62
2019-06-27T09:14:24.554Z,1025.60
2019-06-27T09:15:24.571Z,1025.58
2019-06-27T09:16:24.606Z,1025.53
2019-06-27T09:17:24.603Z,1025.51
2019-06-27T09:18:24.624Z,1025.49
2019-06-27T09:19:24.643Z,1025.47
2019-06-27T09:20:24.669Z,1025.48
2019-06-27T09:21:24.673Z,1025.52
2019-06-27T09:22:24.694Z,1025.49
2019-06-27T09:23:24.727Z,1025.48
2019-06-27T09:24:24.754Z,1025.50
2019-06-27T09:25:24.749Z,1025.51
2019-06-27T09:26:24.777Z,1025.51
2019-06-27T09:27:24.781Z,1025.41
2019-06-27T09:28:24.798Z,1025.43
2019-06-27T09:29:24.817Z,1025.44
2019-06-27T09:30:24.892Z,1025.36
2019-06-27T09:31:24.856Z,1025.40
2019-06-27T09:32:26.353Z,1025.39
2019-06-27T09:33:24.894Z,1025.33
2019-06-27T09:34:24.899Z,1025.34
2019-06-27T09:35:24.917Z,1025.30
2019-06-27T09:36:24.937Z,1025.32
2019-06-27T09:37:24.952Z,1025.35
2019-06-27T09:38:24.967Z,1025.32
2019-06-27T09:39:27.093Z,1025.30
2019-06-27T09:40:25.003Z,1025.34
2019-06-27T09:41:25.046Z,1025.28
2019-06-27T09:42:25.050Z,1025.26
2019-06-27T09:43:25.053Z,1025.30
2019-06-27T09:44:25.071Z,1025.25
2019-06-27T09:45:25.087Z,1025.21
2019-06-27T09:46:25.101Z,1025.22
2019-06-27T09:47:25.118Z,1025.22
2019-06-27T09:48:25.129Z,1025.19
2019-06-27T09:49:25.152Z,1025.26
2019-06-27T09:50:25.168Z,1025.20
2019-06-27T09:51:25.181Z,1025.24
2019-06-27T09:52:25.195Z,1025.21
2019-06-27T09:53:25.211Z,1025.18
2019-06-27T09:54:25.230Z,1025.21
2019-06-27T09:55:25.246Z,1025.12
2019-06-27T09:56:25.266Z,1025.10
2019-06-27T09:57:25.282Z,1025.03
2019-06-27T09:58:25.293Z,1025.09
2019-06-27T09:59:25.310Z,1025.08
2019-06-27T10:00:25.362Z,1025.09
2019-06-27T10:01:25.419Z,1025.09
2019-06-27T10:02:40.514Z,1025.09
2019-06-27T10:03:25.379Z,1025.08
2019-06-27T10:04:25.394Z,1025.10
2019-06-27T10:05:25.409Z,1025.10
2019-06-27T10:06:26.391Z,1025.13
2019-06-27T10:07:25.440Z,1025.09
2019-06-27T10:08:25.462Z,1025.09
2019-06-27T10:09:25.479Z,1025.06
2019-06-27T10:10:25.495Z,1025.03
2019-06-27T10:11:25.506Z,1024.99
2019-06-27T10:12:40.941Z,1025.02
2019-06-27T10:13:25.557Z,1024.95
2019-06-27T10:14:25.562Z,1025.01
2019-06-27T10:15:25.579Z,1024.93
2019-06-27T10:16:25.592Z,1024.97
2019-06-27T10:17:25.613Z,1024.98
2019-06-27T10:18:25.628Z,1025.00
2019-06-27T10:19:25.646Z,1025.03
2019-06-27T10:20:25.667Z,1025.01
2019-06-27T10:21:25.682Z,1024.96
2019-06-27T10:22:25.695Z,1025.03
2019-06-27T10:23:25.750Z,1024.98
2019-06-27T10:24:25.733Z,1024.88
2019-06-27T10:25:25.750Z,1024.94
2019-06-27T10:26:25.763Z,1024.96
2019-06-27T10:27:25.780Z,1024.88
2019-06-27T10:28:25.795Z,1024.82
2019-06-27T10:29:25.821Z,1024.80
2019-06-27T10:30:25.837Z,1024.78
2019-06-27T10:31:25.850Z,1024.76
2019-06-27T10:32:25.865Z,1024.73
2019-06-27T10:33:25.880Z,1024.77
2019-06-27T10:34:25.892Z,1024.76
2019-06-27T10:35:25.910Z,1024.80
2019-06-27T10:36:25.931Z,1024.78
2019-06-27T10:37:25.947Z,1024.76
2019-06-27T10:38:25.968Z,1024.73
2019-06-27T10:39:25.994Z,1024.77
2019-06-27T10:40:26.002Z,1024.71
2019-06-27T10:41:26.013Z,1024.70
2019-06-27T10:42:26.034Z,1024.67
2019-06-27T10:43:26.053Z,1024.64
2019-06-27T10:44:26.066Z,1024.59
2019-06-27T10:45:26.082Z,1024.64
2019-06-27T10:46:26.118Z,1024.59
2019-06-27T10:47:26.117Z,1024.67
2019-06-27T10:48:26.129Z,1024.64
2019-06-27T10:49:26.144Z,1024.62
2019-06-27T10:50:26.172Z,1024.60
2019-06-27T10:51:26.184Z,1024.61
2019-06-27T10:52:26.204Z,1024.58
2019-06-27T10:53:26.219Z,1024.57
2019-06-27T10:54:26.233Z,1024.48
2019-06-27T10:55:26.250Z,1024.53
2019-06-27T10:56:26.277Z,1024.52
2019-06-27T10:57:26.283Z,1024.46
2019-06-27T10:58:26.297Z,1024.47
2019-06-27T10:59:26.314Z,1024.47
2019-06-27T11:00:26.327Z,1024.44
2019-06-27T11:01:26.389Z,1024.39
2019-06-27T11:02:26.365Z,1024.35
2019-06-27T11:03:26.378Z,1024.38
2019-06-27T11:04:26.395Z,1024.37
2019-06-27T11:05:26.410Z,1024.37
2019-06-27T11:06:26.430Z,1024.34
2019-06-27T11:07:26.436Z,1024.32
2019-06-27T11:08:26.455Z,1024.32
2019-06-27T11:09:26.473Z,1024.26
2019-06-27T11:10:26.488Z,1024.21
2019-06-27T11:11:26.506Z,1024.21
2019-06-27T11:12:26.516Z,1024.15
2019-06-27T11:13:26.542Z,1024.13
2019-06-27T11:14:26.551Z,1024.12
2019-06-27T11:15:26.581Z,1024.10
2019-06-27T11:16:26.605Z,1024.09
2019-06-27T11:17:26.597Z,1024.03
2019-06-27T11:18:26.607Z,1023.99
2019-06-27T11:19:26.621Z,1023.95
2019-06-27T11:20:26.648Z,1023.87
2019-06-27T11:21:26.657Z,1023.79
2019-06-27T11:22:26.681Z,1023.78
2019-06-27T11:23:26.693Z,1023.71
2019-06-27T11:24:26.706Z,1023.66
2019-06-27T11:25:26.716Z,1023.60
2019-06-27T11:26:26.730Z,1023.49
2019-06-27T11:27:27.542Z,1023.47
2019-06-27T11:28:26.761Z,1023.42
2019-06-27T11:29:26.775Z,1023.33
2019-06-27T11:30:26.781Z,1023.38
2019-06-27T11:31:26.800Z,1023.28
2019-06-27T11:32:26.812Z,1023.25
2019-06-27T11:33:32.442Z,1023.22
2019-06-27T11:34:26.834Z,1023.24
2019-06-27T11:35:26.846Z,1023.26
2019-06-27T11:36:26.856Z,1023.20
2019-06-27T11:37:26.864Z,1023.20
2019-06-27T11:38:26.869Z,1023.25
2019-06-27T11:39:26.879Z,1023.19
2019-06-27T11:40:26.887Z,1023.25
2019-06-27T11:41:26.892Z,1023.24
2019-06-27T11:42:29.796Z,1023.21
2019-06-27T11:43:26.914Z,1023.18
2019-06-27T11:44:26.918Z,1023.18
2019-06-27T11:45:26.952Z,1023.18
2019-06-27T11:46:26.939Z,1023.15
2019-06-27T11:47:26.945Z,1023.11
2019-06-27T11:48:26.954Z,1023.17
2019-06-27T11:49:26.961Z,1023.20
2019-06-27T11:50:26.967Z,1023.17
2019-06-27T11:51:26.975Z,1023.19
2019-06-27T11:52:26.977Z,1023.21
2019-06-27T11:53:26.983Z,1023.12
2019-06-27T11:54:26.995Z,1023.09
2019-06-27T11:55:27.002Z,1023.07
2019-06-27T11:56:27.002Z,1023.12
2019-06-27T11:57:27.010Z,1023.07
2019-06-27T11:58:27.012Z,1023.05
2019-06-27T11:59:27.018Z,1023.05
2019-06-27T12:00:27.028Z,1023.07
2019-06-27T12:01:27.036Z,1023.01
2019-06-27T12:02:27.031Z,1023.06
2019-06-27T12:03:27.042Z,1023.06
2019-06-27T12:04:27.046Z,1023.04
2019-06-27T12:05:27.077Z,1023.03